TRLO2: Red River Nr Terral, OK

Data processed at Fri Mar 09 2018 23:07


All information presented herein is the property of the government of the United States of America and may be revised or deleted at any time without prior notice.
Dissemination of this information without the expressed written consent of the Public Affairs Office, Tulsa District U.S. Army Corps of Engineers is strictly prohibited.
These data are gathered electronically and, as presented, have not undergone any form of quality control. These data are not guaranteed to be valid or correct.
Go to home page.
Go to station list.

Upstream stations:

Downstream station:
Previous Day
Next Day
Current Day
    
SHEF ID:       TRLO2     Red Rv nr Terral, OK
STATION TYPE:  

               PRECIP     STAGE  RIV-FLOW   VOLTAGE  BAT-LOAD
                   in        ft       cfs      volt      volt
              Ccp-Rev   Ccp-Rev   Ccp-Rev   Ccp-Rev   Ccp-Rev
(US/Central)
03/07 00:00      0.00      7.33       532     13.10     12.71
03/07 01:00      0.00      7.33       532     13.10     12.65
03/07 02:00      0.00      7.32       527     13.00     12.65
03/07 03:00      0.00      7.33       532     13.00     12.60
03/07 04:00      0.00      7.33       532     13.00     12.54
03/07 05:00      0.00      7.32       527     12.90     12.54
03/07 06:00      0.00      7.33       532     12.90     12.48
03/07 07:00      0.00      7.34       536     12.90     12.48
03/07 08:00      0.00      7.32       527     13.10     12.48
03/07 09:00      0.00      7.29       515     14.80     12.60
03/07 10:00      0.00      7.24       495     14.50     13.65
03/07 11:00      0.00      7.31       523     14.50     14.18
03/07 12:00      0.00      7.28       511     14.30     14.12
03/07 13:00      0.00      7.29       515     14.30     14.06
03/07 14:00      0.00      7.30       519     14.30     13.88
03/07 15:00      0.00      7.27       507     14.20     13.83
03/07 16:00      0.00      7.27       507     14.50     13.83
03/07 17:00      0.00      7.27       507     14.20     13.88
03/07 18:00      0.00      7.27       507     14.30     13.83
03/07 19:00      0.00      7.28       511     13.30     13.12
03/07 20:00      0.00      7.27       507     13.20     12.83
03/07 21:00      0.00      7.27       507     13.20     12.77
03/07 22:00      0.00      7.27       507     13.10     12.71
03/07 23:00      0.00      7.25       499     13.10     12.71